createdAt,value
2019-03-21T00:00:55.881Z,99.90
2019-03-21T00:03:43.761Z,99.90
2019-03-21T00:06:31.077Z,99.90
2019-03-21T00:09:19.411Z,99.90
2019-03-21T00:12:10.947Z,99.90
2019-03-21T00:15:01.726Z,99.90
2019-03-21T00:17:52.358Z,99.90
2019-03-21T00:20:40.086Z,99.90
2019-03-21T00:23:27.647Z,99.90
2019-03-21T00:26:15.286Z,99.90
2019-03-21T00:29:02.739Z,99.90
2019-03-21T00:31:50.368Z,99.90
2019-03-21T00:34:38.056Z,99.90
2019-03-21T00:37:25.747Z,99.90
2019-03-21T00:40:16.431Z,99.90
2019-03-21T00:43:07.140Z,99.90
2019-03-21T00:45:54.633Z,99.90
2019-03-21T00:48:42.399Z,99.90
2019-03-21T00:51:29.949Z,99.90
2019-03-21T00:54:17.672Z,99.90
2019-03-21T00:57:05.105Z,99.90
2019-03-21T00:59:52.513Z,99.90
2019-03-21T01:02:40.176Z,99.90
2019-03-21T01:05:27.665Z,99.90
2019-03-21T01:08:15.110Z,99.90
2019-03-21T01:11:02.802Z,99.90
2019-03-21T01:13:50.568Z,99.90
2019-03-21T01:16:38.285Z,99.90
2019-03-21T01:19:25.837Z,99.90
2019-03-21T01:22:13.541Z,99.90
2019-03-21T01:25:01.107Z,99.90
2019-03-21T01:27:48.618Z,99.90
2019-03-21T01:30:36.262Z,99.90
2019-03-21T01:33:23.722Z,99.90
2019-03-21T01:36:11.644Z,99.90
2019-03-21T01:38:59.228Z,99.90
2019-03-21T01:41:46.929Z,99.90
2019-03-21T01:44:40.993Z,99.90
2019-03-21T01:47:24.595Z,99.90
2019-03-21T01:50:15.176Z,99.90
2019-03-21T01:53:02.760Z,99.90
2019-03-21T01:55:50.267Z,99.90
2019-03-21T01:58:37.718Z,99.90
2019-03-21T02:01:25.497Z,99.90
2019-03-21T02:04:13.158Z,99.90
2019-03-21T02:07:00.776Z,99.90
2019-03-21T02:09:48.484Z,99.90
2019-03-21T02:12:35.849Z,99.90
2019-03-21T02:15:25.007Z,99.90
2019-03-21T02:18:12.870Z,99.90
2019-03-21T02:21:00.576Z,99.90
2019-03-21T02:23:47.997Z,99.90
2019-03-21T02:26:35.640Z,99.90
2019-03-21T02:29:23.317Z,99.90
2019-03-21T02:32:10.948Z,99.90
2019-03-21T02:34:58.499Z,99.90
2019-03-21T02:37:45.901Z,99.90
2019-03-21T02:40:33.353Z,99.90
2019-03-21T02:43:20.833Z,99.90
2019-03-21T02:46:08.323Z,99.90
2019-03-21T02:48:55.834Z,99.90
2019-03-21T02:51:43.692Z,99.90
2019-03-21T02:54:31.368Z,99.90
2019-03-21T02:57:19.010Z,99.90
2019-03-21T03:00:10.015Z,99.90
2019-03-21T03:02:58.882Z,99.90
2019-03-21T03:05:46.553Z,99.90
2019-03-21T03:08:34.158Z,99.90
2019-03-21T03:11:23.695Z,99.90
2019-03-21T03:14:11.304Z,99.90
2019-03-21T03:16:59.071Z,99.90
2019-03-21T03:19:46.697Z,99.90
2019-03-21T03:22:34.366Z,99.90
2019-03-21T03:25:21.865Z,99.90
2019-03-21T03:28:12.076Z,99.90
2019-03-21T03:30:59.552Z,99.90
2019-03-21T03:33:46.928Z,99.90
2019-03-21T03:36:34.683Z,99.90
2019-03-21T03:39:22.199Z,99.90
2019-03-21T03:42:09.641Z,99.90
2019-03-21T03:44:57.224Z,99.90
2019-03-21T03:47:44.701Z,99.90
2019-03-21T03:50:32.422Z,99.90
2019-03-21T03:53:20.122Z,99.90
2019-03-21T03:56:07.461Z,99.90
2019-03-21T03:58:58.237Z,99.90
2019-03-21T04:01:46.085Z,99.90
2019-03-21T04:04:33.683Z,99.90
2019-03-21T04:07:21.336Z,99.90
2019-03-21T04:10:23.524Z,99.90
2019-03-21T04:13:10.889Z,99.90
2019-03-21T04:15:58.558Z,99.90
2019-03-21T04:18:45.936Z,99.90
2019-03-21T04:21:33.778Z,99.90
2019-03-21T04:24:21.466Z,99.90
2019-03-21T04:27:09.019Z,99.90
2019-03-21T04:29:56.710Z,99.90
2019-03-21T04:32:44.491Z,99.90
2019-03-21T04:35:32.224Z,99.90
2019-03-21T04:38:19.761Z,99.90
2019-03-21T04:41:07.425Z,99.90
2019-03-21T04:43:55.227Z,99.90
2019-03-21T04:46:42.843Z,99.90
2019-03-21T04:49:30.503Z,99.90
2019-03-21T04:52:17.941Z,99.90
2019-03-21T04:55:08.693Z,99.90
2019-03-21T04:57:56.107Z,99.90
2019-03-21T05:00:52.243Z,99.90
2019-03-21T05:03:39.665Z,99.90
2019-03-21T05:06:27.057Z,99.90
2019-03-21T05:09:16.277Z,99.90
2019-03-21T05:12:04.017Z,99.90
2019-03-21T05:14:51.526Z,99.90
2019-03-21T05:17:38.950Z,99.90
2019-03-21T05:20:28.760Z,99.90
2019-03-21T05:23:16.578Z,99.90
2019-03-21T05:26:04.249Z,99.90
2019-03-21T05:28:52.003Z,99.90
2019-03-21T05:31:39.669Z,99.90
2019-03-21T05:34:27.505Z,99.90
2019-03-21T05:37:15.240Z,99.90
2019-03-21T05:40:03.902Z,99.90
2019-03-21T05:43:06.453Z,99.90
2019-03-21T05:45:54.174Z,99.90
2019-03-21T05:48:41.880Z,99.90
2019-03-21T05:51:29.512Z,99.90
2019-03-21T05:54:17.084Z,99.90
2019-03-21T05:57:04.822Z,99.90
2019-03-21T05:59:52.201Z,99.90
2019-03-21T06:02:39.653Z,99.90
2019-03-21T06:05:28.397Z,99.90
2019-03-21T06:08:22.395Z,99.90
2019-03-21T06:11:10.580Z,99.90
2019-03-21T06:13:57.977Z,99.90
2019-03-21T06:16:45.576Z,99.90
2019-03-21T06:19:39.184Z,99.90
2019-03-21T06:22:50.696Z,99.90
2019-03-21T06:25:59.620Z,99.90
2019-03-21T06:28:47.520Z,99.90
2019-03-21T06:31:34.944Z,99.90
2019-03-21T06:34:22.440Z,99.90
2019-03-21T06:37:10.091Z,99.90
2019-03-21T06:39:57.508Z,99.90
2019-03-21T06:42:45.176Z,99.90
2019-03-21T06:45:32.723Z,99.90
2019-03-21T06:48:20.428Z,99.90
2019-03-21T06:51:08.190Z,99.90
2019-03-21T06:53:55.716Z,99.90
2019-03-21T06:56:43.381Z,99.90
2019-03-21T06:59:30.917Z,99.90
2019-03-21T07:02:19.007Z,99.90
2019-03-21T07:05:07.224Z,99.90
2019-03-21T07:07:54.765Z,99.90
2019-03-21T07:10:42.221Z,99.90
2019-03-21T07:13:29.721Z,99.90
2019-03-21T07:16:17.476Z,99.90
2019-03-21T07:19:04.904Z,99.90
2019-03-21T07:21:52.225Z,99.90
2019-03-21T07:24:39.660Z,99.90
2019-03-21T07:27:27.512Z,99.90
2019-03-21T07:30:15.312Z,99.90
2019-03-21T07:33:02.944Z,99.90
2019-03-21T07:35:50.607Z,99.90
2019-03-21T07:38:38.002Z,99.90
2019-03-21T07:41:25.373Z,99.90
2019-03-21T07:44:14.494Z,99.90
2019-03-21T07:47:12.060Z,99.90
2019-03-21T07:49:51.604Z,99.90
2019-03-21T07:52:38.981Z,99.90
2019-03-21T07:55:26.588Z,99.90
2019-03-21T07:58:14.041Z,99.90
2019-03-21T08:01:01.508Z,99.90
2019-03-21T08:03:48.884Z,99.90
2019-03-21T08:06:36.541Z,99.90
2019-03-21T08:09:24.291Z,99.90
2019-03-21T08:12:11.797Z,99.90
2019-03-21T08:14:59.134Z,99.90
2019-03-21T08:17:46.685Z,99.90
2019-03-21T08:20:34.337Z,99.90
2019-03-21T08:23:21.979Z,99.90
2019-03-21T08:26:09.465Z,99.90
2019-03-21T08:28:56.986Z,99.90
2019-03-21T08:31:44.556Z,99.90
2019-03-21T08:34:31.917Z,99.90
2019-03-21T08:37:19.591Z,99.90
2019-03-21T08:40:08.007Z,99.90
2019-03-21T08:42:55.721Z,99.90
2019-03-21T08:45:43.236Z,99.90
2019-03-21T08:48:30.658Z,99.90
2019-03-21T08:51:18.359Z,99.90
2019-03-21T08:54:06.128Z,99.90
2019-03-21T08:56:53.713Z,99.90
2019-03-21T08:59:41.466Z,99.90
2019-03-21T09:02:28.874Z,99.90
2019-03-21T09:05:16.545Z,99.90
2019-03-21T09:08:04.416Z,99.90
2019-03-21T09:10:52.176Z,99.90
2019-03-21T09:13:39.561Z,99.90
2019-03-21T09:16:26.908Z,99.90
2019-03-21T09:19:14.591Z,99.90
2019-03-21T09:22:02.081Z,99.90
2019-03-21T09:24:49.434Z,98.50
2019-03-21T09:27:37.136Z,97.70
2019-03-21T09:30:24.860Z,98.00
2019-03-21T09:33:12.221Z,95.90
2019-03-21T09:35:59.824Z,96.40
2019-03-21T09:38:47.224Z,94.00
2019-03-21T09:41:35.107Z,91.60
2019-03-21T09:44:29.143Z,91.10
2019-03-21T09:47:16.516Z,89.30
2019-03-21T09:50:09.053Z,90.80
2019-03-21T09:52:56.568Z,87.70
2019-03-21T09:55:44.006Z,85.60
2019-03-21T09:58:31.790Z,81.80
2019-03-21T10:01:19.226Z,85.10
2019-03-21T10:04:06.600Z,90.50
2019-03-21T10:06:54.137Z,78.90
2019-03-21T10:09:42.029Z,78.60
2019-03-21T10:12:29.706Z,78.70
2019-03-21T10:15:17.300Z,79.10
2019-03-21T10:18:05.133Z,80.60
2019-03-21T10:20:52.604Z,79.10
2019-03-21T10:23:39.977Z,76.90
2019-03-21T10:26:27.676Z,78.00
2019-03-21T10:29:15.193Z,73.80
2019-03-21T10:32:13.647Z,74.70
2019-03-21T10:34:52.430Z,76.60
2019-03-21T10:37:40.011Z,75.50
2019-03-21T10:40:27.733Z,75.50
2019-03-21T10:43:15.388Z,74.40
2019-03-21T10:46:02.993Z,73.00
2019-03-21T10:48:50.400Z,68.00
2019-03-21T10:51:38.253Z,65.90
2019-03-21T10:54:26.041Z,62.50
2019-03-21T10:57:13.692Z,58.80
2019-03-21T11:00:02.006Z,58.30
2019-03-21T11:02:49.925Z,57.60
2019-03-21T11:05:37.409Z,58.00
2019-03-21T11:08:24.953Z,57.60
2019-03-21T11:11:13.197Z,58.00
2019-03-21T11:14:00.965Z,58.50
2019-03-21T11:16:48.637Z,56.10
2019-03-21T11:19:35.965Z,56.30
2019-03-21T11:22:23.420Z,55.00
2019-03-21T11:25:11.053Z,54.50
2019-03-21T11:27:58.741Z,54.80
2019-03-21T11:30:46.216Z,55.00
2019-03-21T11:33:33.761Z,55.00
2019-03-21T11:36:21.380Z,54.80
2019-03-21T11:39:08.937Z,56.40
2019-03-21T11:41:56.413Z,55.80
2019-03-21T11:44:44.259Z,53.70
2019-03-21T11:47:41.295Z,50.80
2019-03-21T11:50:21.166Z,51.10
2019-03-21T11:53:08.549Z,51.80
2019-03-21T11:55:56.301Z,53.10
2019-03-21T11:58:43.879Z,54.10
2019-03-21T12:01:31.276Z,52.60
2019-03-21T12:04:18.801Z,51.00
2019-03-21T12:07:06.137Z,49.40
2019-03-21T12:09:53.590Z,48.80
2019-03-21T12:12:41.217Z,48.50
2019-03-21T12:15:29.060Z,47.70
2019-03-21T12:18:16.708Z,48.20
2019-03-21T12:21:04.145Z,48.30
2019-03-21T12:23:51.581Z,48.40
2019-03-21T12:29:26.466Z,46.80
2019-03-21T12:32:13.887Z,46.30
2019-03-21T12:35:01.612Z,47.00
2019-03-21T12:37:49.189Z,44.20
2019-03-21T12:40:36.678Z,44.40
2019-03-21T12:43:23.993Z,41.30
2019-03-21T12:46:11.578Z,41.50
2019-03-21T12:48:59.336Z,41.50
2019-03-21T12:51:46.741Z,40.90
2019-03-21T12:54:34.541Z,42.10
2019-03-21T12:57:22.193Z,39.80
2019-03-21T13:00:14.312Z,39.80
2019-03-21T13:03:01.681Z,41.70
2019-03-21T13:05:49.163Z,41.20
2019-03-21T13:08:36.795Z,42.70
2019-03-21T13:11:24.517Z,41.70
2019-03-21T13:14:12.172Z,39.40
2019-03-21T13:16:59.800Z,40.00
2019-03-21T13:19:47.313Z,40.60
2019-03-21T13:22:34.908Z,41.30
2019-03-21T13:25:22.404Z,41.70
2019-03-21T13:28:09.833Z,40.10
2019-03-21T13:30:57.185Z,41.00
2019-03-21T13:33:44.569Z,41.10
2019-03-21T13:36:32.018Z,41.70
2019-03-21T13:39:19.929Z,41.20
2019-03-21T13:42:07.648Z,41.10
2019-03-21T13:44:55.236Z,43.00
2019-03-21T13:47:42.885Z,42.10
2019-03-21T13:50:30.633Z,42.90
2019-03-21T13:53:19.167Z,42.80
2019-03-21T13:56:07.009Z,42.80
2019-03-21T13:58:54.668Z,40.90
2019-03-21T14:01:42.401Z,42.10
2019-03-21T14:04:30.098Z,42.20
2019-03-21T14:07:17.561Z,40.90
2019-03-21T14:10:07.544Z,41.40
2019-03-21T14:12:54.957Z,41.10
2019-03-21T14:15:42.712Z,41.90
2019-03-21T14:18:30.133Z,41.30
2019-03-21T14:21:17.714Z,41.70
2019-03-21T14:24:05.386Z,42.60
2019-03-21T14:26:52.870Z,40.40
2019-03-21T14:29:40.197Z,40.80
2019-03-21T14:32:27.807Z,40.80
2019-03-21T14:35:15.319Z,42.00
2019-03-21T14:38:02.759Z,41.60
2019-03-21T14:40:50.516Z,42.40
2019-03-21T14:43:38.396Z,42.30
2019-03-21T14:46:26.069Z,42.00
2019-03-21T14:49:13.649Z,42.50
2019-03-21T14:52:01.290Z,44.00
2019-03-21T14:54:48.677Z,43.60
2019-03-21T14:57:36.393Z,42.90
2019-03-21T15:00:24.078Z,43.70
2019-03-21T15:03:11.553Z,43.10
2019-03-21T15:05:59.233Z,42.00
2019-03-21T15:08:46.885Z,42.70
2019-03-21T15:11:34.317Z,43.10
2019-03-21T15:14:22.377Z,42.70
2019-03-21T15:17:09.838Z,43.20
2019-03-21T15:19:57.469Z,44.00
2019-03-21T15:22:45.258Z,44.40
2019-03-21T15:25:32.964Z,41.80
2019-03-21T15:28:20.348Z,42.00
2019-03-21T15:31:08.057Z,42.60
2019-03-21T15:33:55.504Z,41.50
2019-03-21T15:36:43.247Z,43.20
2019-03-21T15:39:30.617Z,43.70
2019-03-21T15:42:18.020Z,42.60
2019-03-21T15:45:22.305Z,42.10
2019-03-21T15:48:03.576Z,41.90
2019-03-21T15:50:51.045Z,42.60
2019-03-21T15:53:38.621Z,42.60
2019-03-21T15:56:26.287Z,42.60
2019-03-21T15:59:14.037Z,44.30
2019-03-21T16:02:01.712Z,44.60
2019-03-21T16:04:49.340Z,44.80
2019-03-21T16:07:36.722Z,42.50
2019-03-21T16:10:24.372Z,43.20
2019-03-21T16:13:11.804Z,43.70
2019-03-21T16:15:59.255Z,44.10
2019-03-21T16:18:46.753Z,43.30
2019-03-21T16:21:34.580Z,44.00
2019-03-21T16:24:22.291Z,45.00
2019-03-21T16:27:09.661Z,45.00
2019-03-21T16:29:57.293Z,45.80
2019-03-21T16:32:45.133Z,45.70
2019-03-21T16:35:32.605Z,44.80
2019-03-21T16:38:20.269Z,44.60
2019-03-21T16:41:07.944Z,44.60
2019-03-21T16:43:55.630Z,45.50
2019-03-21T16:46:43.300Z,45.90
2019-03-21T16:49:30.923Z,46.50
2019-03-21T16:52:18.717Z,47.70
2019-03-21T16:55:07.892Z,46.20
2019-03-21T16:57:55.525Z,45.90
2019-03-21T17:00:43.048Z,46.10
2019-03-21T17:03:30.809Z,46.40
2019-03-21T17:06:18.227Z,46.80
2019-03-21T17:09:07.628Z,46.60
2019-03-21T17:11:54.960Z,47.50
2019-03-21T17:14:42.653Z,47.90
2019-03-21T17:17:30.290Z,48.60
2019-03-21T17:20:17.943Z,49.10
2019-03-21T17:23:06.109Z,49.30
2019-03-21T17:25:53.766Z,49.70
2019-03-21T17:28:41.348Z,49.50
2019-03-21T17:31:29.009Z,50.00
2019-03-21T17:34:16.699Z,50.20
2019-03-21T17:37:04.694Z,49.80
2019-03-21T17:39:52.175Z,50.50
2019-03-21T17:42:39.886Z,50.50
2019-03-21T17:45:27.273Z,50.50
2019-03-21T17:48:14.721Z,50.10
2019-03-21T17:51:02.166Z,50.70
2019-03-21T17:53:49.620Z,51.20
2019-03-21T17:56:37.225Z,51.70
2019-03-21T17:59:24.889Z,51.70
2019-03-21T18:02:12.469Z,52.40
2019-03-21T18:05:00.432Z,52.70
2019-03-21T18:07:47.852Z,52.80
2019-03-21T18:10:35.580Z,53.60
2019-03-21T18:13:23.232Z,57.10
2019-03-21T18:16:10.990Z,59.70
2019-03-21T18:18:58.694Z,64.90
2019-03-21T18:25:33.747Z,73.90
2019-03-21T18:28:21.395Z,79.70
2019-03-21T18:31:08.876Z,84.90
2019-03-21T18:33:56.527Z,90.00
2019-03-21T18:36:44.221Z,93.50
2019-03-21T18:39:31.845Z,93.90
2019-03-21T18:42:19.507Z,94.90
2019-03-21T18:45:09.100Z,96.50
2019-03-21T18:47:56.780Z,98.70
2019-03-21T18:50:44.360Z,99.00
2019-03-21T18:53:32.009Z,99.90
2019-03-21T18:56:19.473Z,99.90
2019-03-21T18:59:07.197Z,99.90
2019-03-21T19:01:58.650Z,99.90
2019-03-21T19:04:44.362Z,99.90
2019-03-21T19:07:31.961Z,99.90
2019-03-21T19:10:19.631Z,99.90
2019-03-21T19:13:07.233Z,99.90
2019-03-21T19:15:54.910Z,99.90
2019-03-21T19:18:42.334Z,99.90
2019-03-21T19:21:30.109Z,99.90
2019-03-21T19:24:17.594Z,99.90
2019-03-21T19:27:05.301Z,99.90
2019-03-21T19:29:52.734Z,99.90
2019-03-21T19:32:40.504Z,99.90
2019-03-21T19:35:27.918Z,99.90
2019-03-21T19:38:15.686Z,99.90
2019-03-21T19:41:03.254Z,99.90
2019-03-21T19:43:50.901Z,99.90
2019-03-21T19:46:38.577Z,99.90
2019-03-21T19:49:25.995Z,99.90
2019-03-21T19:52:13.572Z,99.90
2019-03-21T19:55:01.233Z,99.90
2019-03-21T19:57:48.657Z,99.90
2019-03-21T20:00:36.138Z,99.90
2019-03-21T20:03:23.984Z,99.90
2019-03-21T20:06:11.706Z,99.90
2019-03-21T20:08:59.261Z,99.90
2019-03-21T20:11:46.795Z,99.90
2019-03-21T20:14:34.408Z,99.90
2019-03-21T20:17:21.756Z,99.90
2019-03-21T20:20:11.852Z,99.90
2019-03-21T20:22:59.573Z,99.90
2019-03-21T20:25:47.161Z,99.90
2019-03-21T20:28:34.845Z,99.90
2019-03-21T20:31:22.270Z,99.90
2019-03-21T20:34:12.695Z,99.90
2019-03-21T20:36:59.604Z,99.90
2019-03-21T20:39:47.181Z,99.90
2019-03-21T20:42:34.829Z,99.90
2019-03-21T20:45:22.624Z,99.90
2019-03-21T20:48:10.108Z,99.90
2019-03-21T20:50:57.960Z,99.90
2019-03-21T20:53:45.433Z,99.90
2019-03-21T20:56:33.223Z,99.90
2019-03-21T20:59:20.504Z,99.90
2019-03-21T21:02:07.908Z,99.90
2019-03-21T21:04:55.607Z,99.90
2019-03-21T21:07:43.339Z,99.90
2019-03-21T21:10:30.712Z,99.90
2019-03-21T21:13:18.131Z,99.90
2019-03-21T21:16:06.056Z,99.90
2019-03-21T21:18:53.710Z,99.90
2019-03-21T21:21:41.139Z,99.90
2019-03-21T21:24:28.824Z,99.90
2019-03-21T21:27:16.592Z,99.90
2019-03-21T21:30:06.889Z,99.90
2019-03-21T21:32:54.344Z,99.90
2019-03-21T21:35:42.112Z,99.90
2019-03-21T21:38:29.875Z,99.90
2019-03-21T21:41:17.296Z,99.90
2019-03-21T21:44:04.877Z,99.90
2019-03-21T21:46:52.552Z,99.90
2019-03-21T21:49:40.185Z,99.90
2019-03-21T21:52:27.888Z,99.90
2019-03-21T21:55:15.489Z,99.90
2019-03-21T21:58:02.835Z,99.90
2019-03-21T22:00:50.514Z,99.90
2019-03-21T22:03:38.152Z,99.90
2019-03-21T22:06:25.561Z,99.90
2019-03-21T22:09:13.059Z,99.90
2019-03-21T22:12:00.454Z,99.90
2019-03-21T22:14:48.110Z,99.90
2019-03-21T22:17:35.580Z,99.90
2019-03-21T22:20:23.336Z,99.90
2019-03-21T22:23:10.991Z,99.90
2019-03-21T22:25:58.375Z,99.90
2019-03-21T22:28:46.145Z,99.90
2019-03-21T22:31:33.704Z,99.90
2019-03-21T22:34:21.308Z,99.90
2019-03-21T22:37:08.987Z,99.90
2019-03-21T22:39:56.629Z,99.90
2019-03-21T22:42:44.333Z,99.90
2019-03-21T22:45:31.928Z,99.90
2019-03-21T22:48:19.391Z,99.90
2019-03-21T22:51:07.116Z,99.90
2019-03-21T22:53:54.748Z,99.90
2019-03-21T22:56:42.450Z,99.90
2019-03-21T22:59:30.120Z,99.90
2019-03-21T23:02:17.810Z,99.90
2019-03-21T23:05:06.669Z,99.90
2019-03-21T23:07:54.337Z,99.90
2019-03-21T23:10:41.954Z,99.90
2019-03-21T23:13:29.723Z,99.90
2019-03-21T23:16:17.440Z,99.90
2019-03-21T23:19:04.939Z,99.90
2019-03-21T23:21:52.669Z,99.90
2019-03-21T23:24:39.944Z,99.90
2019-03-21T23:27:27.633Z,99.90
2019-03-21T23:30:16.781Z,99.90
2019-03-21T23:33:04.517Z,99.90
2019-03-21T23:35:51.844Z,99.90
2019-03-21T23:38:39.200Z,99.90
2019-03-21T23:41:26.957Z,99.90
2019-03-21T23:44:14.689Z,99.90
2019-03-21T23:47:02.436Z,99.90
2019-03-21T23:49:49.795Z,99.90
2019-03-21T23:52:37.304Z,99.90
2019-03-21T23:55:24.926Z,99.90
2019-03-21T23:58:12.491Z,99.90
